Bookmark and Share
Track history (hours):
 

Drifting buoy 46928

Last reported at 2014-Apr-20 19:30 UTC. Time now 2014-Apr-20 21:05 UTC.
Position N 47°23' W 162°06'.

Barometer 1022.8 mb
Water temperature 5.6 ° C

NotesDate/timePositionNaut miles runAvg speedWind from/ knotsBaromVisibWave heightAir tempDewpointWater temp
2014-Apr-20 19:30N 47°23' W 162°06'1 0.4 1022.8 5.6
2014-Apr-20 15:30N 47°24' W 162°07'0 0.0 1021.4 5.6
2014-Apr-20 14:30N 47°24' W 162°07'0 0.2 1020.9 5.6
2014-Apr-20 12:30N 47°24' W 162°08'2 1.7 1019.7 5.6
2014-Apr-20 11:30N 47°23' W 162°09'0 0.0 1019.7 5.6
2014-Apr-20 10:30N 47°23' W 162°09'0 0.1 1019.7 5.6
2014-Apr-20 07:30N 47°22' W 162°10'2 0.7 1018.0 5.6
2014-Apr-20 04:30N 47°24' W 162°08'1 0.6 1015.6 5.6
2014-Apr-20 02:30N 47°25' W 162°08'1 1.4 1014.3 5.6
2014-Apr-20 01:30N 47°26' W 162°08'2 0.8 1013.7 5.6
2014-Apr-19 22:30N 47°26' W 162°12'0 0.4 1012.2 5.6
2014-Apr-19 21:30N 47°26' W 162°13'2 0.6 1011.8 5.6
2014-Apr-19 17:30N 47°24' W 162°10'1 0.6 1008.3 5.5
2014-Apr-19 15:30N 47°25' W 162°12'1 0.4 1006.5 5.5
2014-Apr-19 12:30N 47°26' W 162°12'2 0.4 1004.8 5.5
2014-Apr-19 08:30N 47°28' W 162°13'1 0.7 1003.9 5.5
2014-Apr-19 07:30N 47°28' W 162°14'1 0.6 1003.7 5.6
2014-Apr-19 06:30N 47°27' W 162°14'2 0.6 1003.2 5.6
2014-Apr-19 03:30N 47°27' W 162°17'1 0.3 1002.7 5.6
2014-Apr-19 01:30N 47°27' W 162°16'0 0.2 1003.4 5.6
2014-Apr-18 23:30N 47°26' W 162°17'0 0.0 1004.6 5.5
2014-Apr-18 22:30N 47°26' W 162°17'0 0.3 1004.9 5.5
2014-Apr-18 21:30N 47°27' W 162°16'0 0.1 1005.0 5.5
2014-Apr-18 20:30N 47°27' W 162°16'1 1.3 1005.0 5.5
2014-Apr-18 19:30N 47°28' W 162°15'0 0.0 1004.7 5.5
2014-Apr-18 18:30N 47°28' W 162°15'0 0.0 1004.4 5.5
2014-Apr-18 17:30N 47°28' W 162°15'1 1.3 1003.9 5.5
2014-Apr-18 16:30N 47°28' W 162°17'1 0.5 1003.3 5.5
2014-Apr-18 15:20N 47°29' W 162°18'3 3.1 1003.0 5.5
2014-Apr-18 14:30N 47°30' W 162°21'2 1.1 1002.8 5.5
2014-Apr-18 12:20N 47°28' W 162°24'0 0.0 1002.4 5.5
2014-Apr-18 09:20N 47°28' W 162°24'0 0.0 1000.8 5.5
2014-Apr-18 07:20N 47°28' W 162°24'3 3.0 999.1 5.5
2014-Apr-18 06:30N 47°29' W 162°20'1 0.7 997.9 5.6
2014-Apr-18 05:30N 47°29' W 162°19'0 0.1 996.8 5.6
2014-Apr-18 03:30N 47°29' W 162°20'1 0.6 994.9 5.6
2014-Apr-18 01:20N 47°30' W 162°19'0 0.2 993.9 5.6
2014-Apr-18 00:30N 47°30' W 162°19'2 0.8 993.5 5.6
2014-Apr-17 22:30N 47°31' W 162°21'1 0.7 993.7 5.6
2014-Apr-17 21:20N 47°31' W 162°22'3 2.7 994.4 5.5
2014-Apr-17 20:20N 47°31' W 162°26'0 0.0 994.9 5.5
2014-Apr-17 19:20N 47°31' W 162°26'0 0.0 995.7 5.5
2014-Apr-17 18:30N 47°31' W 162°26'2 2.5 997.0 5.5
2014-Apr-17 17:30N 47°29' W 162°24'0 0.0 998.0 5.5
2014-Apr-17 16:30N 47°29' W 162°24'2 0.8 998.3 5.5
2014-Apr-17 14:30N 47°29' W 162°21'0 0.0 1001.1 5.5
2014-Apr-17 13:30N 47°29' W 162°21'0 0.0 1002.8 5.5
2014-Apr-17 12:30N 47°29' W 162°21'2 0.4 1004.2 5.5
2014-Apr-17 08:30N 47°31' W 162°21'2 1.9 1008.0 5.5
2014-Apr-17 07:30N 47°31' W 162°23'1 0.5 1009.0 5.6
2014-Apr-17 06:30N 47°32' W 162°23'1 0.7 1008.9 5.6
2014-Apr-17 05:30N 47°32' W 162°24'1 0.7 1008.7 5.6
2014-Apr-17 03:30N 47°31' W 162°26'0 0.1 1009.9 5.6
2014-Apr-17 02:20N 47°31' W 162°26'1 0.5 1009.8 5.6
2014-Apr-17 00:30N 47°30' W 162°26'2 0.8 1010.7 5.5
2014-Apr-16 21:30N 47°33' W 162°25'0 0.0 1011.6 5.5
2014-Apr-16 20:30N 47°33' W 162°25'0 0.0 1011.2 5.5
2014-Apr-16 18:30N 47°33' W 162°25'1 0.5 1010.7 5.5
2014-Apr-16 17:30N 47°32' W 162°25'1 0.9 1010.6 5.4
2014-Apr-16 16:20N 47°32' W 162°26'2 0.9 1010.3 5.4
2014-Apr-16 14:30N 47°33' W 162°28'2 0.5 1010.4 5.5
2014-Apr-16 11:20N 47°33' W 162°31'0 0.0 1010.5 5.5
2014-Apr-16 10:30N 47°33' W 162°31'0 0.0 1010.7 5.5
2014-Apr-16 09:20N 47°33' W 162°31'2 0.7 1011.0 5.5
2014-Apr-16 06:30N 47°32' W 162°28'2 0.4 1011.2 5.5
2014-Apr-16 00:30N 47°34' W 162°28'1 0.8 1012.0 5.5
2014-Apr-15 23:30N 47°34' W 162°29'0 0.3 1012.3 5.5
2014-Apr-15 22:30N 47°34' W 162°29'1 0.8 1012.3 5.5
2014-Apr-15 21:30N 47°34' W 162°30'3 1.2 1012.5 5.4
2014-Apr-15 19:20N 47°35' W 162°34'2 0.7 1012.4 5.3
2014-Apr-15 16:30N 47°33' W 162°34'1 0.5 1012.1 5.3
2014-Apr-15 15:30N 47°33' W 162°34'0 0.5 1011.9 5.2
2014-Apr-15 14:30N 47°33' W 162°34'2 0.8 1011.7 5.2
2014-Apr-15 11:30N 47°34' W 162°31'0 0.1 1010.8 5.3
2014-Apr-15 08:30N 47°34' W 162°31'1 1.4 1009.8 5.3
2014-Apr-15 07:30N 47°36' W 162°32'0 0.0 1010.0 5.3
2014-Apr-15 06:30N 47°36' W 162°32'0 0.4 1009.6 5.3
2014-Apr-15 05:30N 47°36' W 162°32'2 0.9 1008.8 5.3
2014-Apr-15 03:30N 47°36' W 162°35'1 0.9 1006.8 5.3
2014-Apr-15 02:20N 47°36' W 162°36'1 0.3 1006.2 5.3
2014-Apr-15 00:20N 47°35' W 162°36'1 1.7 1006.7 5.3
2014-Apr-14 23:30N 47°34' W 162°36'0 0.0 1007.1 5.2
2014-Apr-14 21:30N 47°34' W 162°36'2 0.7 1007.9 5.2
2014-Apr-14 18:30N 47°33' W 162°33'0 0.5 1009.1 5.2
2014-Apr-14 17:30N 47°34' W 162°33'2 1.0 1010.0 5.2
2014-Apr-14 15:30N 47°36' W 162°32'2 2.4 1011.3 5.2
2014-Apr-14 14:30N 47°38' W 162°34'0 0.0 1012.3 5.2
2014-Apr-14 13:30N 47°38' W 162°34'0 0.0 1012.9 5.2
2014-Apr-14 12:30N 47°38' W 162°34'4 4.3 1013.5 5.2
2014-Apr-14 11:30N 47°36' W 162°40'2 0.7 1014.0 5.2
2014-Apr-14 08:20N 47°34' W 162°41'3 0.8 1015.8 5.2
2014-Apr-14 04:30N 47°33' W 162°37'1 0.7 1013.7 5.2
2014-Apr-14 03:30N 47°33' W 162°36'2 1.5 1013.2 5.2
2014-Apr-14 02:20N 47°35' W 162°36'0 0.2 1012.8 5.2
2014-Apr-14 00:30N 47°35' W 162°35'3 2.6 1010.5 5.2
2014-Apr-13 23:30N 47°37' W 162°37'0 0.0 1008.9 5.2
2014-Apr-13 22:30N 47°37' W 162°37'4 1.7 1006.9 5.2
2014-Apr-13 20:20N 47°37' W 162°43'3 0.4 1001.8 5.2
2014-Apr-13 13:30N 47°36' W 162°46'0 0.0 1002.3 5.3
2014-Apr-13 11:30N 47°36' W 162°46'0 0.0 1007.1 5.3
2014-Apr-13 08:20N 47°36' W 162°46'0 0.2 1010.3 5.3
2014-Apr-13 06:30N 47°35' W 162°46'0 0.3 1011.5 5.3
2014-Apr-13 05:30N 47°36' W 162°46'1 0.5 1012.0 5.4
2014-Apr-13 02:30N 47°35' W 162°47'1 1.0 1013.8 5.4
2014-Apr-13 01:20N 47°36' W 162°48'1 0.9 1014.2 5.4
2014-Apr-13 00:20N 47°36' W 162°49'1 0.3 1014.5 5.4
2014-Apr-12 21:30N 47°36' W 162°48'1 0.5 1014.6 5.3
2014-Apr-12 19:30N 47°35' W 162°48'0 0.0 1013.7 5.2
2014-Apr-12 18:30N 47°35' W 162°48'1 1.1 1013.4 5.2
2014-Apr-12 17:30N 47°36' W 162°49'0 0.3 1012.8 5.2
2014-Apr-12 16:20N 47°36' W 162°49'0 0.0 1012.0 5.2
2014-Apr-12 15:30N 47°36' W 162°49'1 1.2 1011.6 5.2
2014-Apr-12 14:30N 47°37' W 162°48'0 0.2 1011.2 5.2
2014-Apr-12 13:30N 47°37' W 162°48'0 0.0 1010.9 5.2
2014-Apr-12 12:20N 47°37' W 162°48'3 0.8 1010.4 5.2
2014-Apr-12 08:30N 47°36' W 162°52'0 0.0 1008.9 5.3
2014-Apr-12 07:30N 47°36' W 162°52'1 0.5 1008.5 5.3
2014-Apr-12 06:20N 47°36' W 162°52'0 0.5 1007.8 5.3
2014-Apr-12 05:30N 47°36' W 162°51'0 0.3 1007.0 5.3
2014-Apr-12 04:20N 47°36' W 162°51'0 0.1 1006.5 5.3
2014-Apr-12 01:30N 47°36' W 162°51'3 0.3 1005.3 5.3
2014-Apr-11 15:30N 47°39' W 162°54'1 0.4 993.4 5.3
2014-Apr-11 12:30N 47°40' W 162°54'1 1.0 990.0 5.3
2014-Apr-11 11:30N 47°39' W 162°54'1 1.0 990.9 5.3
2014-Apr-11 10:30N 47°40' W 162°54'0 0.0 991.6 5.3
2014-Apr-11 09:30N 47°40' W 162°54'1 0.4 992.4 5.3
2014-Apr-11 07:30N 47°40' W 162°53'1 0.7 995.4 5.3
2014-Apr-11 06:30N 47°39' W 162°54'0 0.2 996.8 5.3
2014-Apr-11 05:30N 47°39' W 162°54'1 0.4 998.1 5.3
2014-Apr-11 03:20N 47°39' W 162°53'1 0.9 1001.0 5.3
2014-Apr-11 02:30N 47°39' W 162°53'1 1.1 1002.3 5.3
2014-Apr-11 01:20N 47°40' W 162°53'1 0.5 1003.5 5.3
2014-Apr-10 23:30N 47°41' W 162°54'1 0.7 1005.8 5.3
2014-Apr-10 22:30N 47°40' W 162°54'1 0.5 1006.6 5.3
2014-Apr-10 21:30N 47°40' W 162°55'   1007.4 5.3

Dump ship's entire track history

sailing weather and tide predictions

Buoy 46928